Time;durP1;ratioP1;P1;durP2;ratioP2;P2;SDS_P1;SDS_P2;PMS_P1;PMS_P2;Temp;Humidity;BMP_temperature;BMP_pressure;BME280_temperature;BME280_humidity;BME280_pressure;Samples;Min_cycle;Max_cycle;Signal;HPM_P1;HPM_P2
2021/01/17 00:01:21;;;;;;;39.67;20.17;;;;;;;-1.58;100.00;101017.41;10497362;28;20059;-71
2021/01/17 00:06:22;;;;;;;44.70;23.65;;;;;;;-1.57;100.00;101008.81;10514690;28;20476;-71
2021/01/17 00:11:23;;;;;;;43.22;22.30;;;;;;;-1.57;100.00;100994.19;10494861;28;20350;-71
2021/01/17 00:16:24;;;;;;;46.70;25.77;;;;;;;-1.57;100.00;100989.00;10496744;28;20055;-71
2021/01/17 00:21:25;;;;;;;45.17;24.08;;;;;;;-1.51;100.00;100992.53;10496469;28;20564;-71
2021/01/17 00:26:27;;;;;;;51.38;26.15;;;;;;;-1.47;100.00;100997.72;10495883;28;20446;-71
2021/01/17 00:31:28;;;;;;;50.80;24.75;;;;;;;-1.52;100.00;100983.03;10496087;28;20511;-71
2021/01/17 00:36:36;;;;;;;54.17;28.70;;;;;;;-1.43;100.00;100983.13;10496581;28;20101;-71
2021/01/17 00:41:37;;;;;;;49.30;26.60;;;;;;;-1.52;100.00;100976.16;10496250;28;20090;-71
2021/01/17 00:46:39;;;;;;;49.42;26.67;;;;;;;-1.53;100.00;100977.00;10496246;28;20056;-71
2021/01/17 00:51:44;;;;;;;49.95;27.55;;;;;;;-1.51;100.00;100974.44;10495366;28;20091;-71
2021/01/17 00:56:46;;;;;;;45.40;25.55;;;;;;;-1.47;100.00;100969.31;10531936;28;20055;-71
2021/01/17 01:01:52;;;;;;;49.67;27.65;;;;;;;-1.34;100.00;100980.66;10537094;28;20134;-71
2021/01/17 01:06:53;;;;;;;44.13;27.05;;;;;;;-1.30;100.00;100982.41;10538693;28;20048;-71
2021/01/17 01:11:55;;;;;;;46.83;27.90;;;;;;;-1.29;100.00;100994.47;10482969;28;20071;-71
2021/01/17 01:16:56;;;;;;;47.78;27.67;;;;;;;-1.30;100.00;100985.84;10502905;28;20086;-70
2021/01/17 01:22:01;;;;;;;42.92;26.08;;;;;;;-1.22;100.00;100983.34;10477542;28;20045;-71
2021/01/17 01:27:02;;;;;;;43.13;25.67;;;;;;;-1.25;100.00;100979.00;10487540;28;20099;-71
2021/01/17 01:32:03;;;;;;;48.35;26.15;;;;;;;-1.33;100.00;100974.59;10502530;28;20033;-71
2021/01/17 01:37:06;;;;;;;49.90;28.45;;;;;;;-1.23;100.00;100963.50;10502480;28;20070;-71
2021/01/17 01:42:08;;;;;;;47.95;26.25;;;;;;;-1.17;100.00;100974.75;10503428;28;20036;-70
2021/01/17 01:47:14;;;;;;;42.60;25.08;;;;;;;-1.24;100.00;100959.19;10503344;28;20554;-70
2021/01/17 01:52:16;;;;;;;42.83;24.08;;;;;;;-1.26;100.00;100966.97;10502334;28;20381;-70
2021/01/17 01:57:18;;;;;;;43.03;24.80;;;;;;;-1.30;100.00;100949.66;10525422;28;20506;-70
2021/01/17 02:02:19;;;;;;;39.35;24.08;;;;;;;-1.27;100.00;100947.13;10526701;28;20476;-70
2021/01/17 02:07:29;;;;;;;41.58;24.40;;;;;;;-1.19;100.00;100953.22;10508641;28;20048;-70
2021/01/17 02:12:39;;;;;;;42.08;24.83;;;;;;;-1.16;100.00;100945.47;10502065;28;20051;-70
2021/01/17 02:17:42;;;;;;;47.17;28.35;;;;;;;-1.15;100.00;100946.34;10501917;28;20052;-70
2021/01/17 02:22:48;;;;;;;49.58;26.67;;;;;;;-1.19;100.00;100937.72;10501288;28;20075;-70
2021/01/17 02:27:51;;;;;;;50.88;28.90;;;;;;;-1.20;100.00;100933.41;10482711;28;20047;-70
2021/01/17 02:33:00;;;;;;;46.78;26.25;;;;;;;-1.10;100.00;100946.41;10501254;28;20048;-71
2021/01/17 02:38:12;;;;;;;43.95;24.58;;;;;;;-1.13;100.00;100939.47;10500782;28;20051;-70
2021/01/17 02:43:13;;;;;;;38.90;21.90;;;;;;;-1.13;100.00;100931.72;10499584;28;20081;-70
2021/01/17 02:48:15;;;;;;;43.65;24.05;;;;;;;-1.22;100.00;100927.34;10499883;28;20063;-70
2021/01/17 02:53:49;;;;;;;42.25;24.15;;;;;;;-1.03;100.00;100930.09;10500384;28;20048;-71
2021/01/17 02:58:53;;;;;;;39.97;21.95;;;;;;;-1.13;100.00;100926.56;10478936;28;20393;-71
2021/01/17 03:04:05;;;;;;;43.42;25.10;;;;;;;-1.25;100.00;100932.47;10514138;28;20051;-71
2021/01/17 03:09:07;;;;;;;46.65;26.00;;;;;;;-1.28;100.00;100934.19;10485682;28;20052;-71
2021/01/17 03:14:09;;;;;;;45.33;24.05;;;;;;;-1.32;100.00;100929.81;10499582;28;20040;-71
2021/01/17 03:19:10;;;;;;;43.97;24.48;;;;;;;-1.32;100.00;100920.34;10488938;28;20053;-70
2021/01/17 03:24:11;;;;;;;41.25;24.27;;;;;;;-1.29;100.00;100927.28;10491410;28;20055;-71
2021/01/17 03:29:12;;;;;;;46.95;25.05;;;;;;;-1.23;100.00;100937.66;10485831;28;20053;-70
2021/01/17 03:34:14;;;;;;;41.53;23.98;;;;;;;-1.29;100.00;100930.75;10498186;28;20047;-70
2021/01/17 03:39:15;;;;;;;45.28;26.48;;;;;;;-1.35;100.00;100922.94;10497556;28;20044;-71
2021/01/17 03:44:16;;;;;;;50.45;27.02;;;;;;;-1.28;100.00;100937.63;10497579;28;20056;-71
2021/01/17 03:49:17;;;;;;;47.22;26.20;;;;;;;-1.28;100.00;100940.22;10498200;28;20061;-70
2021/01/17 03:54:18;;;;;;;52.40;28.25;;;;;;;-1.34;100.00;100922.06;10497219;28;20044;-71
2021/01/17 03:59:19;;;;;;;47.03;26.90;;;;;;;-1.34;100.00;100924.63;10484311;28;20052;-70
2021/01/17 04:04:20;;;;;;;53.35;29.42;;;;;;;-1.29;100.00;100930.75;10519483;28;20048;-70
2021/01/17 04:09:21;;;;;;;47.28;26.02;;;;;;;-1.28;100.00;100921.25;10539318;28;20040;-70
2021/01/17 04:14:22;;;;;;;43.28;23.98;;;;;;;-1.28;100.00;100927.31;10524881;28;20041;-70
2021/01/17 04:19:24;;;;;;;44.45;25.00;;;;;;;-1.30;100.00;100926.41;10498029;28;20086;-70
2021/01/17 04:24:25;;;;;;;51.45;24.88;;;;;;;-1.27;100.00;100923.88;10497501;28;20040;-70
2021/01/17 04:29:26;;;;;;;44.13;25.73;;;;;;;-1.24;100.00;100923.88;10497351;28;20049;-70
2021/01/17 04:34:27;;;;;;;45.00;24.73;;;;;;;-1.25;100.00;100919.56;10499045;28;20041;-70
2021/01/17 04:39:28;;;;;;;51.00;27.55;;;;;;;-1.29;100.00;100911.78;10499865;28;20048;-70
2021/01/17 04:44:34;;;;;;;45.65;24.55;;;;;;;-1.13;100.00;100925.69;10497277;28;20407;-70
2021/01/17 04:49:39;;;;;;;45.72;26.02;;;;;;;-1.12;100.00;100930.00;10496871;28;20416;-70
2021/01/17 04:54:41;;;;;;;47.17;27.27;;;;;;;-1.14;100.00;100937.75;10497867;28;20370;-71
2021/01/17 04:59:46;;;;;;;45.92;24.80;;;;;;;-1.13;100.00;100948.94;10539515;28;20044;-70
2021/01/17 05:05:13;;;;;;;49.45;27.20;;;;;;;-1.03;100.00;100959.41;10532167;28;20093;-70
2021/01/17 05:10:32;;;;;;;45.20;25.48;;;;;;;-1.14;100.00;100932.56;10534375;28;20054;-70
2021/01/17 05:15:36;;;;;;;50.35;25.95;;;;;;;-1.11;100.00;100939.50;10503842;28;20090;-70
2021/01/17 05:20:38;;;;;;;51.00;28.02;;;;;;;-1.18;100.00;100925.66;10495750;28;20496;-70
2021/01/17 05:25:42;;;;;;;48.72;26.15;;;;;;;-1.15;100.00;100929.13;10500368;28;20040;-70
2021/01/17 05:30:48;;;;;;;46.88;27.20;;;;;;;-1.10;100.00;100930.91;10502686;28;20049;-70
2021/01/17 05:35:49;;;;;;;49.08;27.42;;;;;;;-1.12;100.00;100932.59;10503497;28;20040;-70
2021/01/17 05:40:51;;;;;;;50.33;28.00;;;;;;;-1.06;100.00;100932.63;10511311;28;20052;-70
2021/01/17 05:45:52;;;;;;;45.97;24.88;;;;;;;-1.04;100.00;100936.09;10502719;28;20067;-70
2021/01/17 05:50:53;;;;;;;53.85;28.27;;;;;;;-0.97;100.00;100924.97;10502850;28;20045;-70
2021/01/17 05:55:55;;;;;;;52.17;27.73;;;;;;;-0.98;100.00;100918.91;10512410;28;20052;-70
2021/01/17 06:00:57;;;;;;;54.47;28.02;;;;;;;-0.94;100.00;100938.78;10502652;28;20041;-70
2021/01/17 06:06:01;;;;;;;49.58;26.30;;;;;;;-1.01;100.00;100947.34;10532988;28;20090;-70
2021/01/17 06:11:10;;;;;;;53.53;27.25;;;;;;;-0.96;100.00;100949.97;10501610;28;20537;-70
2021/01/17 06:16:31;;;;;;;49.95;28.27;;;;;;;-0.91;100.00;100946.53;10502383;28;20045;-70
2021/01/17 06:21:35;;;;;;;50.35;26.48;;;;;;;-0.87;100.00;100960.38;10497246;28;20037;-70
2021/01/17 06:26:38;;;;;;;52.92;26.80;;;;;;;-0.95;100.00;100943.94;10460177;28;20045;-70
2021/01/17 06:31:39;;;;;;;51.15;27.77;;;;;;;-0.84;100.00;100957.84;10499831;28;20048;-70
2021/01/17 06:36:46;;;;;;;53.97;27.60;;;;;;;-0.83;100.00;100944.88;10500245;28;20064;-70
2021/01/17 06:41:53;;;;;;;52.08;28.80;;;;;;;-0.71;100.00;100953.59;10500668;28;20040;-70
2021/01/17 06:46:54;;;;;;;54.80;27.98;;;;;;;-0.80;100.00;100937.16;10500169;28;20454;-70
2021/01/17 06:51:57;;;;;;;59.38;29.55;;;;;;;-0.78;100.00;100950.97;10499226;28;20063;-71
2021/01/17 06:57:00;;;;;;;63.20;31.23;;;;;;;-0.78;100.00;100944.94;10511753;28;20492;-71
2021/01/17 07:02:13;;;;;;;52.90;26.02;;;;;;;-0.72;100.00;100964.78;10504714;28;20040;-71
2021/01/17 07:07:52;;;;;;;56.60;28.25;;;;;;;-0.72;100.00;100969.97;10539226;28;20497;-71
2021/01/17 07:13:04;;;;;;;61.08;32.03;;;;;;;-0.70;100.00;100976.03;10482641;28;20048;-71
2021/01/17 07:18:11;;;;;;;59.55;29.42;;;;;;;-0.71;100.00;100988.09;10493676;28;20048;-71
2021/01/17 07:23:17;;;;;;;57.25;29.00;;;;;;;-0.60;100.00;101001.97;10497907;28;20059;-71
2021/01/17 07:28:19;;;;;;;60.13;31.05;;;;;;;-0.57;100.00;101004.56;10498532;28;20056;-71
2021/01/17 07:33:26;;;;;;;66.30;31.20;;;;;;;-0.63;100.00;100993.31;10499022;28;20044;-70
2021/01/17 07:38:29;;;;;;;67.95;32.97;;;;;;;-0.63;100.00;101007.13;10498937;28;20040;-71
2021/01/17 07:43:32;;;;;;;56.55;29.00;;;;;;;-0.74;100.00;101006.16;10498119;28;20079;-70
2021/01/17 07:48:33;;;;;;;64.80;31.30;;;;;;;-0.62;100.00;101018.34;10498322;28;20499;-70
2021/01/17 07:53:42;;;;;;;60.22;30.38;;;;;;;-0.69;100.00;101035.53;10497892;28;20053;-71
2021/01/17 07:58:47;;;;;;;58.75;30.60;;;;;;;-0.68;100.00;101042.44;10505317;28;20446;-71
2021/01/17 08:03:48;;;;;;;67.25;32.50;;;;;;;-0.68;100.00;101052.81;10515979;28;20051;-71
2021/01/17 08:08:49;;;;;;;75.43;36.95;;;;;;;-0.53;100.00;101062.41;10499455;28;20052;-71
2021/01/17 08:13:50;;;;;;;78.65;37.55;;;;;;;-0.48;100.00;101065.88;10496869;28;20037;-71
2021/01/17 08:18:52;;;;;;;69.65;34.42;;;;;;;-0.55;100.00;101067.56;10497851;28;20049;-71
2021/01/17 08:24:11;;;;;;;63.83;31.45;;;;;;;-0.66;100.00;101069.19;10491765;28;20118;-70
2021/01/17 08:29:12;;;;;;;78.35;34.17;;;;;;;-0.48;100.00;101092.63;10495981;28;20048;-70
2021/01/17 08:34:15;;;;;;;75.57;34.85;;;;;;;-0.28;100.00;101100.56;10500626;28;20128;-70
2021/01/17 08:39:47;;;;;;;67.28;34.10;;;;;;;-0.36;100.00;101099.63;10515501;28;20488;-71
2021/01/17 08:44:48;;;;;;;72.72;34.38;;;;;;;-0.31;100.00;101108.28;10516181;28;20119;-70
2021/01/17 08:49:50;;;;;;;78.32;33.75;;;;;;;-0.28;100.00;101117.81;10497137;28;20057;-70
2021/01/17 08:54:51;;;;;;;72.28;35.95;;;;;;;-0.27;100.00;101122.16;10489792;28;20047;-70
2021/01/17 08:59:52;;;;;;;70.72;32.13;;;;;;;-0.28;100.00;101130.75;10546226;28;20044;-70
2021/01/17 09:04:55;;;;;;;74.15;37.33;;;;;;;-0.38;100.00;101124.63;10519493;28;20052;-71
2021/01/17 09:10:07;;;;;;;69.57;35.42;;;;;;;-0.20;100.00;101155.00;10503985;28;20063;-71
2021/01/17 09:15:15;;;;;;;73.18;34.47;;;;;;;-0.12;100.00;101159.38;10504425;28;20036;-70
2021/01/17 09:20:16;;;;;;;73.35;35.83;;;;;;;-0.11;100.00;101152.47;10484103;28;20045;-71
2021/01/17 09:25:17;;;;;;;74.40;35.25;;;;;;;-0.12;100.00;101154.19;10499996;28;20044;-70
2021/01/17 09:30:21;;;;;;;69.25;34.05;;;;;;;-0.13;100.00;101170.59;10501992;28;20052;-71
2021/01/17 09:35:22;;;;;;;66.68;32.85;;;;;;;-0.06;100.00;101168.91;10500677;28;20041;-71
2021/01/17 09:40:23;;;;;;;64.50;32.58;;;;;;;-0.09;100.00;101190.50;10503253;28;20106;-71
2021/01/17 09:45:24;;;;;;;62.97;32.05;;;;;;;-0.09;100.00;101192.22;10502008;28;20044;-70
2021/01/17 09:50:34;;;;;;;62.42;32.85;;;;;;;0.22;100.00;101208.84;10500263;28;20041;-70
2021/01/17 09:55:38;;;;;;;64.65;32.80;;;;;;;0.14;100.00;101205.34;10510998;28;20070;-72
2021/01/17 10:00:42;;;;;;;49.13;30.13;;;;;;;0.23;100.00;101215.78;10508644;28;20070;-72
2021/01/17 10:05:44;;;;;;;45.67;25.98;;;;;;;0.36;100.00;101217.56;10521594;28;20114;-72
2021/01/17 10:10:46;;;;;;;45.70;27.75;;;;;;;0.43;100.00;101216.75;10501580;28;20123;-72
2021/01/17 10:15:52;;;;;;;51.38;28.33;;;;;;;0.58;100.00;101235.03;10502243;28;20064;-72
2021/01/17 10:20:56;;;;;;;56.97;31.15;;;;;;;0.67;100.00;101242.00;10493324;28;20057;-72
2021/01/17 10:25:59;;;;;;;37.83;22.27;;;;;;;0.50;100.00;101226.34;10460296;28;20060;-72
2021/01/17 10:31:00;;;;;;;54.15;31.50;;;;;;;0.43;100.00;101219.34;10494148;28;20045;-72
2021/01/17 10:36:01;;;;;;;38.60;24.42;;;;;;;0.64;100.00;101229.88;10500295;28;20132;-72
2021/01/17 10:41:03;;;;;;;49.80;28.90;;;;;;;0.55;100.00;101237.59;10499228;28;20047;-72
2021/01/17 10:46:15;;;;;;;47.22;28.38;;;;;;;0.62;100.00;101241.94;10500436;28;20052;-72
2021/01/17 10:51:25;;;;;;;53.55;30.70;;;;;;;0.76;100.00;101242.91;10500560;28;20051;-72
2021/01/17 10:56:27;;;;;;;48.58;28.45;;;;;;;0.76;100.00;101242.03;10516061;28;20085;-70
2021/01/17 11:01:33;;;;;;;44.17;26.05;;;;;;;1.02;100.00;101248.22;10495305;28;20036;-71
2021/01/17 11:06:34;;;;;;;64.03;35.40;;;;;;;1.01;100.00;101256.84;10520001;28;20448;-71
2021/01/17 11:11:45;;;;;;;47.53;29.42;;;;;;;0.73;100.00;101237.72;10498337;28;20076;-71
2021/01/17 11:16:51;;;;;;;57.80;30.50;;;;;;;0.80;100.00;101243.78;10497742;28;20139;-71
2021/01/17 11:21:53;;;;;;;57.17;30.30;;;;;;;0.70;100.00;101245.47;10499606;28;20048;-72
2021/01/17 11:27:05;;;;;;;57.67;32.13;;;;;;;0.71;100.00;101247.19;10498236;28;20495;-72
2021/01/17 11:32:07;;;;;;;88.53;39.10;;;;;;;0.54;100.00;101241.03;10498861;28;20123;-71
2021/01/17 11:37:09;;;;;;;98.35;52.80;;;;;;;0.59;100.00;101248.81;10496948;28;20043;-71
2021/01/17 11:42:20;;;;;;;77.82;39.75;;;;;;;0.65;100.00;101251.47;10497949;28;20418;-71
2021/01/17 11:47:22;;;;;;;59.35;32.72;;;;;;;0.79;100.00;101254.16;10498381;28;20048;-71
2021/01/17 11:52:24;;;;;;;62.90;33.47;;;;;;;0.61;100.00;101239.34;10498062;28;20072;-71
2021/01/17 11:57:27;;;;;;;65.57;34.53;;;;;;;0.58;100.00;101255.78;10522937;28;20549;-71
2021/01/17 12:02:38;;;;;;;70.97;37.20;;;;;;;0.66;100.00;101274.84;10540098;28;20050;-71
2021/01/17 12:07:55;;;;;;;62.33;33.03;;;;;;;0.86;100.00;101281.84;10531018;28;20033;-71
2021/01/17 12:12:56;;;;;;;75.95;34.30;;;;;;;0.75;100.00;101263.66;10497964;28;20098;-71
2021/01/17 12:17:57;;;;;;;64.05;36.25;;;;;;;0.94;100.00;101290.53;10497790;28;20506;-71
2021/01/17 12:22:59;;;;;;;65.75;36.03;;;;;;;0.82;100.00;101274.94;10471648;28;20076;-71
2021/01/17 12:28:00;;;;;;;58.78;33.08;;;;;;;0.84;100.00;101288.78;10491424;28;20040;-71
2021/01/17 12:33:01;;;;;;;68.10;35.15;;;;;;;0.86;100.00;101289.63;10495964;28;20044;-71
2021/01/17 12:38:02;;;;;;;62.42;34.60;;;;;;;0.71;100.00;101283.50;10496027;28;20048;-71
2021/01/17 12:43:03;;;;;;;45.60;27.23;;;;;;;0.91;100.00;101303.53;10495777;28;20434;-71
2021/01/17 12:48:05;;;;;;;51.47;29.63;;;;;;;0.91;100.00;101286.22;10474378;28;20053;-71
2021/01/17 12:53:06;;;;;;;43.97;26.45;;;;;;;0.99;100.00;101300.13;10482479;28;20043;-71
2021/01/17 12:58:07;;;;;;;70.70;38.28;;;;;;;1.13;100.00;101307.97;10514798;28;20044;-71
2021/01/17 13:03:08;;;;;;;52.85;32.30;;;;;;;1.21;100.00;101306.28;10510069;28;20048;-71
2021/01/17 13:08:09;;;;;;;71.65;37.33;;;;;;;1.18;100.00;101295.88;10537015;28;20105;-71
2021/01/17 13:13:11;;;;;;;48.40;30.13;;;;;;;1.18;100.00;101303.66;10536735;28;20052;-71
2021/01/17 13:18:13;;;;;;;45.78;27.95;;;;;;;1.07;100.00;101292.38;10504526;28;20045;-71
2021/01/17 13:23:14;;;;;;;57.05;29.13;;;;;;;1.02;100.00;101304.44;10503543;28;20049;-72
2021/01/17 13:28:16;;;;;;;55.90;33.38;;;;;;;1.10;100.00;101313.13;10502499;28;20468;-71
2021/01/17 13:33:17;;;;;;;57.67;34.25;;;;;;;1.11;100.00;101305.34;10504024;28;20041;-71
2021/01/17 13:38:20;;;;;;;57.75;32.58;;;;;;;1.48;100.00;101336.69;10501980;28;20113;-72
2021/01/17 13:43:22;;;;;;;51.38;30.08;;;;;;;1.39;100.00;101318.47;10487829;28;20037;-71
2021/01/17 13:48:23;;;;;;;52.05;31.13;;;;;;;1.45;100.00;101334.06;10492948;28;20056;-71
2021/01/17 13:53:24;;;;;;;76.13;44.40;;;;;;;2.65;100.00;101371.63;10472768;28;20037;-71
2021/01/17 13:58:26;;;;;;;44.17;27.77;;;;;;;4.29;100.00;101393.72;10527375;28;20043;-71
2021/01/17 14:03:27;;;;;;;55.95;34.53;;;;;;;4.49;100.00;101359.69;10527037;28;20047;-71
2021/01/17 14:08:28;;;;;;;51.40;32.75;;;;;;;4.27;100.00;101347.69;10502247;28;20044;-71
2021/01/17 14:13:30;;;;;;;41.28;25.95;;;;;;;4.96;100.00;101391.47;10501689;28;20437;-71
2021/01/17 14:18:31;;;;;;;38.33;24.58;;;;;;;5.13;100.00;101365.22;10517252;28;20053;-71
2021/01/17 14:23:33;;;;;;;43.03;26.08;;;;;;;4.45;100.00;101343.16;10500805;28;20052;-71
2021/01/17 14:28:34;;;;;;;37.92;22.95;;;;;;;4.32;100.00;101346.75;10500585;28;20032;-71
2021/01/17 14:33:35;;;;;;;42.78;26.30;;;;;;;3.83;100.00;101322.72;10500587;28;20043;-71
2021/01/17 14:38:36;;;;;;;46.80;28.05;;;;;;;3.11;100.00;101309.09;10481060;28;20041;-71
2021/01/17 14:43:37;;;;;;;44.22;26.73;;;;;;;2.90;100.00;101322.16;10459968;28;20047;-71
2021/01/17 14:48:38;;;;;;;37.95;25.33;;;;;;;2.95;100.00;101341.22;10468823;28;20067;-71
2021/01/17 14:53:40;;;;;;;49.15;30.50;;;;;;;2.99;100.00;101345.59;10499508;28;20040;-71
2021/01/17 14:58:41;;;;;;;38.08;25.70;;;;;;;2.59;100.00;101348.22;10494083;28;20040;-71
2021/01/17 15:03:42;;;;;;;49.13;30.98;;;;;;;2.51;100.00;101336.91;10518920;28;20518;-71
2021/01/17 15:08:44;;;;;;;44.55;27.42;;;;;;;2.50;100.00;101349.94;10541211;28;20064;-71
2021/01/17 15:13:53;;;;;;;43.88;25.50;;;;;;;2.34;100.00;101351.66;10529780;28;20044;-71
2021/01/17 15:18:56;;;;;;;48.40;27.42;;;;;;;2.33;100.00;101356.84;10498887;28;20033;-71
2021/01/17 15:23:58;;;;;;;53.40;31.27;;;;;;;2.26;100.00;101364.63;10499347;28;20476;-71
2021/01/17 15:28:59;;;;;;;59.50;36.42;;;;;;;2.19;100.00;101362.88;10497560;28;20070;-71
2021/01/17 15:34:00;;;;;;;37.85;24.33;;;;;;;2.38;100.00;101374.19;10496600;28;20044;-71
2021/01/17 15:39:02;;;;;;;46.47;27.58;;;;;;;2.92;100.00;101416.72;10497735;28;20040;-71
2021/01/17 15:44:04;;;;;;;42.22;27.33;;;;;;;3.03;100.00;101423.66;10496923;28;20048;-71
2021/01/17 15:49:06;;;;;;;36.30;24.50;;;;;;;2.61;100.00;101414.09;10496311;28;20052;-71
2021/01/17 15:54:07;;;;;;;42.60;25.05;;;;;;;2.70;100.00;101423.63;10476048;28;20041;-71
2021/01/17 15:59:08;;;;;;;39.75;21.90;;;;;;;2.92;100.00;101438.41;10537073;28;20044;-71
2021/01/17 16:04:09;;;;;;;33.08;14.07;;;;;;;3.71;100.00;101460.88;10534679;28;20086;-71
2021/01/17 16:09:10;;;;;;;32.60;14.75;;;;;;;3.61;100.00;101470.44;10497000;28;20408;-71
2021/01/17 16:14:11;;;;;;;25.60;15.32;;;;;;;3.47;100.00;101479.16;10497979;28;20373;-71
2021/01/17 16:19:13;;;;;;;27.23;14.68;;;;;;;3.39;100.00;101492.19;10497837;28;20048;-71
2021/01/17 16:24:14;;;;;;;31.10;16.95;;;;;;;3.33;100.00;101484.41;10496993;28;20033;-71
2021/01/17 16:29:16;;;;;;;38.20;19.17;;;;;;;3.26;100.00;101486.16;10496482;28;20074;-71
2021/01/17 16:34:17;;;;;;;40.35;18.85;;;;;;;3.59;100.00;101500.00;10497227;28;20036;-71
2021/01/17 16:39:18;;;;;;;30.00;13.90;;;;;;;3.94;100.00;101520.75;10496773;28;20044;-71
2021/01/17 16:44:22;;;;;;;37.70;21.17;;;;;;;4.12;100.00;101525.94;10495127;28;20569;-71
2021/01/17 16:49:23;;;;;;;30.35;14.38;;;;;;;4.36;100.00;101535.41;10497450;28;20053;-71
2021/01/17 16:54:24;;;;;;;32.47;12.38;;;;;;;4.46;100.00;101555.38;10460131;28;20099;-71
2021/01/17 16:59:25;;;;;;;22.25;10.82;;;;;;;4.44;100.00;101563.19;10545930;28;20040;-71
2021/01/17 17:04:47;;;;;;;16.75;9.15;;;;;;;4.35;100.00;101565.84;10546720;28;20040;-71
2021/01/17 17:09:48;;;;;;;19.13;10.30;;;;;;;4.28;100.00;101558.03;10505080;28;20103;-71
2021/01/17 17:14:49;;;;;;;21.23;15.65;;;;;;;4.14;100.00;101553.75;10504292;28;20372;-71
2021/01/17 17:19:50;;;;;;;14.50;6.20;;;;;;;4.05;100.00;101558.97;10503561;28;20381;-71
2021/01/17 17:24:52;;;;;;;19.48;8.77;;;;;;;3.96;100.00;101545.97;10501159;28;20207;-71
2021/01/17 17:29:53;;;;;;;19.60;9.02;;;;;;;3.99;100.00;101552.91;10502205;28;20041;-71
2021/01/17 17:34:54;;;;;;;19.65;8.35;;;;;;;4.04;100.00;101551.16;10503553;28;20040;-71
2021/01/17 17:39:55;;;;;;;19.95;11.45;;;;;;;4.07;100.00;101546.81;10502152;28;20044;-71
2021/01/17 17:44:56;;;;;;;22.30;9.02;;;;;;;4.18;100.00;101558.06;10502979;28;20052;-71
2021/01/17 17:49:58;;;;;;;18.42;11.95;;;;;;;4.21;100.00;101562.41;10502706;28;20099;-71
2021/01/17 17:55:00;;;;;;;21.08;10.80;;;;;;;4.29;100.00;101572.81;10468654;28;20040;-71
2021/01/17 18:00:04;;;;;;;18.15;8.52;;;;;;;4.36;100.00;101574.53;10544976;28;20376;-71
2021/01/17 18:05:06;;;;;;;19.57;9.47;;;;;;;4.37;100.00;101566.69;10537596;28;20075;-71
2021/01/17 18:10:08;;;;;;;19.85;8.40;;;;;;;4.45;100.00;101580.59;10528935;28;20040;-71
2021/01/17 18:15:09;;;;;;;18.17;8.85;;;;;;;4.49;100.00;101581.47;10501865;28;20044;-71
2021/01/17 18:20:11;;;;;;;16.13;9.88;;;;;;;4.45;100.00;101585.81;10500483;28;20055;-71
2021/01/17 18:25:16;;;;;;;24.88;10.07;;;;;;;4.40;100.00;101590.19;10502044;28;20049;-71
2021/01/17 18:30:17;;;;;;;26.05;15.68;;;;;;;4.47;100.00;101602.34;10485343;28;20045;-71
2021/01/17 18:35:23;;;;;;;21.80;9.98;;;;;;;4.40;100.00;101590.19;10480298;28;20041;-72
2021/01/17 18:40:26;;;;;;;20.00;9.68;;;;;;;4.41;100.00;101609.31;10496465;28;20056;-71
2021/01/17 18:45:27;;;;;;;22.52;9.95;;;;;;;4.34;100.00;101615.44;10499146;28;20056;-72
2021/01/17 18:50:29;;;;;;;23.52;9.27;;;;;;;4.39;100.00;101611.91;10472849;28;20538;-71
2021/01/17 18:55:30;;;;;;;25.08;7.97;;;;;;;4.37;100.00;101618.88;10467499;28;20400;-71
2021/01/17 19:00:31;;;;;;;25.27;8.65;;;;;;;4.35;100.00;101617.16;10477535;28;20451;-71
2021/01/17 19:05:32;;;;;;;21.42;8.25;;;;;;;4.31;100.00;101620.63;10511718;28;20040;-71
2021/01/17 19:10:35;;;;;;;19.23;7.57;;;;;;;4.33;100.00;101626.72;10498402;28;20044;-71
2021/01/17 19:15:36;;;;;;;17.90;7.47;;;;;;;4.27;100.00;101616.31;10482337;28;20032;-71
2021/01/17 19:20:38;;;;;;;19.85;7.53;;;;;;;4.33;100.00;101618.91;10495411;28;20047;-71
2021/01/17 19:25:39;;;;;;;21.45;8.60;;;;;;;4.27;100.00;101624.16;10496706;28;20515;-71
2021/01/17 19:30:40;;;;;;;17.58;8.70;;;;;;;4.34;100.00;101636.28;10496157;28;20450;-71
2021/01/17 19:35:41;;;;;;;27.75;10.13;;;;;;;4.26;100.00;101635.44;10496510;28;20415;-71
2021/01/17 19:40:42;;;;;;;18.55;9.23;;;;;;;4.31;100.00;101646.72;10491444;28;20033;-71
2021/01/17 19:45:43;;;;;;;24.45;10.27;;;;;;;4.31;100.00;101652.81;10463820;28;20403;-71
2021/01/17 19:50:44;;;;;;;20.02;10.85;;;;;;;4.35;100.00;101664.13;10488318;28;20037;-71
2021/01/17 19:55:45;;;;;;;17.70;10.40;;;;;;;4.22;100.00;101647.59;10496138;28;20048;-71
2021/01/17 20:00:46;;;;;;;20.15;10.95;;;;;;;4.18;100.00;101658.94;10496444;28;20388;-71
2021/01/17 20:05:47;;;;;;;19.33;11.10;;;;;;;4.16;100.00;101655.44;10516815;28;20407;-71
2021/01/17 20:10:52;;;;;;;20.77;11.43;;;;;;;4.18;100.00;101658.94;10481300;28;20041;-71
2021/01/17 20:15:53;;;;;;;22.42;11.50;;;;;;;4.14;100.00;101673.69;10492300;28;20471;-71
2021/01/17 20:20:55;;;;;;;21.63;11.82;;;;;;;4.13;100.00;101681.50;10496171;28;20044;-71
2021/01/17 20:25:56;;;;;;;20.48;11.02;;;;;;;4.10;100.00;101678.94;10496093;28;20043;-71
2021/01/17 20:30:57;;;;;;;26.35;13.55;;;;;;;4.16;100.00;101691.97;10501621;28;20098;-71
2021/01/17 20:35:58;;;;;;;24.63;11.55;;;;;;;4.15;100.00;101698.03;10503832;28;20067;-71
2021/01/17 20:40:59;;;;;;;23.98;11.48;;;;;;;4.13;100.00;101694.56;10503790;28;20036;-71
2021/01/17 20:46:00;;;;;;;13.05;7.25;;;;;;;4.10;100.00;101697.19;10499922;28;20085;-71
2021/01/17 20:51:03;;;;;;;18.42;7.88;;;;;;;4.19;100.00;101707.59;10501511;28;20101;-71
2021/01/17 20:56:06;;;;;;;14.45;6.25;;;;;;;4.16;100.00;101711.09;10501325;28;20484;-71
2021/01/17 21:01:10;;;;;;;10.48;6.07;;;;;;;4.18;100.00;101717.16;10502930;28;20045;-71
2021/01/17 21:06:17;;;;;;;17.05;7.18;;;;;;;4.12;100.00;101716.28;10489445;28;20389;-71
2021/01/17 21:11:19;;;;;;;23.13;9.73;;;;;;;4.16;100.00;101720.66;10482501;28;20041;-71
2021/01/17 21:16:21;;;;;;;13.48;7.82;;;;;;;4.20;100.00;101722.38;10503218;28;20047;-71
2021/01/17 21:21:23;;;;;;;16.00;8.90;;;;;;;4.23;100.00;101727.59;10502403;28;20056;-71
2021/01/17 21:26:24;;;;;;;18.98;10.27;;;;;;;4.20;100.00;101720.63;10466813;28;20045;-70
2021/01/17 21:31:25;;;;;;;24.38;11.35;;;;;;;4.20;100.00;101731.06;10494965;28;20091;-71
2021/01/17 21:36:31;;;;;;;22.52;12.10;;;;;;;4.27;100.00;101729.31;10483515;28;20517;-71
2021/01/17 21:41:33;;;;;;;21.38;12.52;;;;;;;4.27;100.00;101725.88;10488605;28;20692;-71
2021/01/17 21:46:37;;;;;;;24.70;13.18;;;;;;;4.22;100.00;101724.97;10471047;28;20395;-71
2021/01/17 21:51:38;;;;;;;29.10;16.67;;;;;;;4.32;100.00;101737.16;10536429;28;20117;-71
2021/01/17 21:56:39;;;;;;;23.33;14.50;;;;;;;4.24;100.00;101737.16;10498185;28;20033;-71
2021/01/17 22:01:40;;;;;;;23.35;14.43;;;;;;;4.34;100.00;101764.13;10499314;28;20051;-71
2021/01/17 22:06:42;;;;;;;21.35;13.23;;;;;;;4.31;100.00;101751.94;10538649;28;20040;-71
2021/01/17 22:11:43;;;;;;;24.13;12.38;;;;;;;4.33;100.00;101770.19;10507322;28;20044;-71
2021/01/17 22:16:49;;;;;;;30.63;15.25;;;;;;;4.45;100.00;101776.28;10497670;28;20049;-71
2021/01/17 22:21:50;;;;;;;21.83;14.05;;;;;;;4.40;100.00;101769.31;10472137;28;20045;-71
2021/01/17 22:26:54;;;;;;;31.13;16.67;;;;;;;4.45;100.00;101772.78;10455424;28;20060;-70
2021/01/17 22:31:55;;;;;;;36.17;17.90;;;;;;;4.42;100.00;101768.47;10455695;28;20033;-71
2021/01/17 22:36:57;;;;;;;30.70;17.17;;;;;;;4.44;100.00;101768.44;10459142;28;20035;-70